Time;durP1;ratioP1;P1;durP2;ratioP2;P2;SDS_P1;SDS_P2;PMS_P1;PMS_P2;Temp;Humidity;BMP_temperature;BMP_pressure;BME280_temperature;BME280_humidity;BME280_pressure;Samples;Min_cycle;Max_cycle;Signal;HPM_P1;HPM_P2
2024/04/06 00:02:13;;;;;;;;;;;;;;;17.66;47.62;100504.72;4919548;28;100115;-71
2024/04/06 00:04:41;;;;;;;;;;;;;;;17.71;47.72;100506.50;4915170;28;98377;-71
2024/04/06 00:07:08;;;;;;;;;;;;;;;17.71;47.63;100506.50;4953655;28;97985;-73
2024/04/06 00:09:35;;;;;;;;;;;;;;;17.72;47.65;100510.03;4932021;28;98333;-71
2024/04/06 00:12:01;;;;;;;;;;;;;;;17.72;47.66;100507.31;4935191;28;98221;-72
2024/04/06 00:14:28;;;;;;;;;;;;;;;17.71;47.74;100511.94;4913004;28;98104;-71
2024/04/06 00:16:54;;;;;;;;;;;;;;;17.72;47.89;100512.75;4953357;28;98158;-71
2024/04/06 00:19:21;;;;;;;;;;;;;;;17.72;47.67;100520.94;4925657;28;98558;-72
2024/04/06 00:21:48;;;;;;;;;;;;;;;17.71;47.66;100517.41;4920494;28;98005;-72
2024/04/06 00:24:14;;;;;;;;;;;;;;;17.70;47.85;100517.72;4922046;28;99128;-71
2024/04/06 00:26:41;;;;;;;;;;;;;;;17.67;47.92;100511.78;4934761;28;99587;-71
2024/04/06 00:29:07;;;;;;;;;;;;;;;17.67;47.88;100519.16;4936301;28;98782;-71
2024/04/06 00:31:33;;;;;;;;;;;;;;;17.65;47.87;100516.75;4937557;28;98574;-71
2024/04/06 00:34:02;;;;;;;;;;;;;;;17.64;47.76;100517.88;4922562;28;98118;-73
2024/04/06 00:36:30;;;;;;;;;;;;;;;17.65;47.91;100526.84;4923209;28;98028;-71
2024/04/06 00:38:56;;;;;;;;;;;;;;;17.62;47.79;100522.03;4923015;28;98521;-71
2024/04/06 00:41:23;;;;;;;;;;;;;;;17.62;47.95;100525.53;4923662;28;98285;-71
2024/04/06 00:43:51;;;;;;;;;;;;;;;17.59;47.65;100528.88;4934884;28;98110;-73
2024/04/06 00:46:20;;;;;;;;;;;;;;;17.56;47.70;100526.78;4920688;28;98195;-72
2024/04/06 00:48:47;;;;;;;;;;;;;;;17.56;47.75;100524.06;4937263;28;98928;-72
2024/04/06 00:51:13;;;;;;;;;;;;;;;17.54;47.93;100526.31;4921062;28;98434;-73
2024/04/06 00:53:40;;;;;;;;;;;;;;;17.52;47.94;100523.06;4918890;28;98177;-71
2024/04/06 00:56:09;;;;;;;;;;;;;;;17.51;47.80;100524.19;4921693;28;98218;-73
2024/04/06 00:58:38;;;;;;;;;;;;;;;17.50;47.84;100535.41;4923960;28;98306;-72
2024/04/06 01:01:05;;;;;;;;;;;;;;;17.47;47.95;100525.13;4934809;28;98995;-71
2024/04/06 01:03:31;;;;;;;;;;;;;;;17.45;47.93;100525.47;4905553;28;99364;-72
2024/04/06 01:05:59;;;;;;;;;;;;;;;17.42;47.71;100524.16;4922379;28;98181;-73
2024/04/06 01:08:26;;;;;;;;;;;;;;;17.40;47.99;100520.13;4921351;28;98379;-72
2024/04/06 01:10:54;;;;;;;;;;;;;;;17.38;48.01;100527.81;4921149;28;97961;-71
2024/04/06 01:13:21;;;;;;;;;;;;;;;17.35;47.94;100520.25;4935284;28;98204;-71
2024/04/06 01:15:47;;;;;;;;;;;;;;;17.32;48.01;100520.88;4921136;28;98184;-71
2024/04/06 01:18:14;;;;;;;;;;;;;;;17.30;48.01;100523.13;4935593;28;98107;-73
2024/04/06 01:20:43;;;;;;;;;;;;;;;17.27;47.89;100526.47;4943979;27;98285;-71
2024/04/06 01:23:12;;;;;;;;;;;;;;;17.25;47.97;100537.69;4924283;27;98391;-73
2024/04/06 01:25:38;;;;;;;;;;;;;;;17.21;47.96;100533.94;4935721;27;97886;-71
2024/04/06 01:28:05;;;;;;;;;;;;;;;17.19;47.86;100538.91;4948554;28;98015;-73
2024/04/06 01:30:31;;;;;;;;;;;;;;;17.16;48.04;100543.03;4935840;27;98732;-71
2024/04/06 01:32:58;;;;;;;;;;;;;;;17.15;47.95;100543.38;4939247;27;99810;-71
2024/04/06 01:35:25;;;;;;;;;;;;;;;17.12;47.91;100541.25;4940834;27;98136;-73
2024/04/06 01:37:54;;;;;;;;;;;;;;;17.11;48.00;100550.53;4936965;27;100555;-73
2024/04/06 01:40:20;;;;;;;;;;;;;;;17.08;47.86;100546.50;4950034;27;99750;-71
2024/04/06 01:42:48;;;;;;;;;;;;;;;17.06;47.88;100546.03;4950466;27;98068;-73
2024/04/06 01:45:14;;;;;;;;;;;;;;;17.04;48.03;100550.97;4938721;28;98180;-72
2024/04/06 01:47:41;;;;;;;;;;;;;;;17.03;47.90;100556.72;4936539;27;101322;-73
2024/04/06 01:50:08;;;;;;;;;;;;;;;17.01;47.91;100556.22;4932122;28;99422;-73
2024/04/06 01:52:36;;;;;;;;;;;;;;;16.99;48.06;100564.69;4952172;27;99346;-72
2024/04/06 01:55:05;;;;;;;;;;;;;;;16.96;48.02;100559.88;4940035;27;98112;-73
2024/04/06 01:57:31;;;;;;;;;;;;;;;16.96;47.91;100565.31;4939056;28;98190;-73
2024/04/06 01:59:58;;;;;;;;;;;;;;;16.93;48.09;100569.44;4937036;27;98140;-71
2024/04/06 02:02:28;;;;;;;;;;;;;;;16.92;47.99;100578.72;4950543;28;99572;-72
2024/04/06 02:04:58;;;;;;;;;;;;;;;16.90;47.91;100578.25;4921895;27;98446;-73
2024/04/06 02:07:26;;;;;;;;;;;;;;;16.89;47.96;100579.34;4938245;28;98389;-72
2024/04/06 02:09:53;;;;;;;;;;;;;;;16.87;47.78;100581.56;4940339;27;98770;-73
2024/04/06 02:12:19;;;;;;;;;;;;;;;16.85;47.94;100578.34;4921582;28;98286;-72
2024/04/06 02:14:47;;;;;;;;;;;;;;;16.85;48.04;100588.44;4936417;27;97963;-73
2024/04/06 02:17:14;;;;;;;;;;;;;;;16.82;47.93;100581.69;4955535;28;98338;-73
2024/04/06 02:19:40;;;;;;;;;;;;;;;16.82;47.90;100581.69;4936194;27;98038;-72
2024/04/06 02:22:07;;;;;;;;;;;;;;;16.80;47.95;100575.75;4934461;27;98120;-72
2024/04/06 02:24:34;;;;;;;;;;;;;;;16.80;48.14;100583.09;4938706;27;98252;-73
2024/04/06 02:27:01;;;;;;;;;;;;;;;16.79;47.98;100584.22;4922053;27;99618;-72
2024/04/06 02:29:28;;;;;;;;;;;;;;;16.78;47.86;100579.88;4934648;28;99447;-71
2024/04/06 02:31:54;;;;;;;;;;;;;;;16.76;48.02;100590.28;4919191;27;98392;-71
2024/04/06 02:34:20;;;;;;;;;;;;;;;16.76;48.07;100593.00;4941336;28;98374;-71
2024/04/06 02:36:48;;;;;;;;;;;;;;;16.74;47.97;100584.31;4942997;27;100842;-73
2024/04/06 02:39:15;;;;;;;;;;;;;;;16.73;48.00;100593.56;4951397;28;98181;-73
2024/04/06 02:41:42;;;;;;;;;;;;;;;16.72;47.98;100583.81;4929507;27;98328;-73
2024/04/06 02:44:10;;;;;;;;;;;;;;;16.71;47.96;100584.91;4936493;27;98496;-73
2024/04/06 02:46:37;;;;;;;;;;;;;;;16.68;48.03;100581.69;4957431;28;98177;-73
2024/04/06 02:49:03;;;;;;;;;;;;;;;16.68;47.99;100589.84;4943528;27;98567;-71
2024/04/06 02:51:29;;;;;;;;;;;;;;;16.66;48.01;100583.91;4942987;28;97988;-71
2024/04/06 02:53:56;;;;;;;;;;;;;;;16.65;48.08;100589.66;4925024;27;99590;-71
2024/04/06 02:56:22;;;;;;;;;;;;;;;16.63;48.00;100587.25;4939548;28;99664;-71
2024/04/06 02:58:49;;;;;;;;;;;;;;;16.62;48.05;100590.25;4926644;27;98169;-71
2024/04/06 03:01:23;;;;;;;;;;;;;;;16.60;48.05;100595.19;4925152;27;98409;-73
2024/04/06 03:03:51;;;;;;;;;;;;;;;16.60;48.10;100601.44;4967975;27;98161;-71
2024/04/06 03:06:20;;;;;;;;;;;;;;;16.57;47.97;100596.59;4920199;27;99224;-73
2024/04/06 03:08:47;;;;;;;;;;;;;;;16.55;48.00;100603.47;4941882;27;99027;-73
2024/04/06 03:11:16;;;;;;;;;;;;;;;16.54;48.02;100599.13;4954291;27;99395;-73
2024/04/06 03:13:43;;;;;;;;;;;;;;;16.53;48.09;100595.59;4920407;27;98239;-72
2024/04/06 03:16:09;;;;;;;;;;;;;;;16.52;48.15;100588.56;4921982;27;98158;-73
2024/04/06 03:18:37;;;;;;;;;;;;;;;16.51;48.05;100597.03;4952297;28;98143;-72
2024/04/06 03:21:06;;;;;;;;;;;;;;;16.48;48.14;100584.84;4928185;27;98265;-71
2024/04/06 03:23:34;;;;;;;;;;;;;;;16.46;48.13;100587.03;4938413;28;98175;-73
2024/04/06 03:26:02;;;;;;;;;;;;;;;16.45;47.98;100588.16;4943829;27;98481;-73
2024/04/06 03:28:29;;;;;;;;;;;;;;;16.43;48.09;100593.13;4936477;27;102638;-73
2024/04/06 03:30:55;;;;;;;;;;;;;;;16.42;48.18;100586.03;4939968;27;98593;-71
2024/04/06 03:33:22;;;;;;;;;;;;;;;16.40;48.19;100591.00;4937069;27;98344;-71
2024/04/06 03:35:48;;;;;;;;;;;;;;;16.37;48.08;100589.66;4937504;27;100081;-73
2024/04/06 03:38:14;;;;;;;;;;;;;;;16.36;48.10;100588.06;4921395;27;98340;-71
2024/04/06 03:40:41;;;;;;;;;;;;;;;16.36;48.26;100590.00;4958872;27;98975;-71
2024/04/06 03:43:08;;;;;;;;;;;;;;;16.34;48.00;100589.47;4958928;27;99338;-73
2024/04/06 03:45:35;;;;;;;;;;;;;;;16.33;48.04;100579.72;4935964;28;98260;-73
2024/04/06 03:48:02;;;;;;;;;;;;;;;16.30;48.19;100575.66;4941806;27;99120;-73
2024/04/06 03:50:30;;;;;;;;;;;;;;;16.30;48.15;100572.94;4925789;27;100155;-73
2024/04/06 03:52:56;;;;;;;;;;;;;;;16.29;48.10;100584.94;4957167;27;98184;-73
2024/04/06 03:55:23;;;;;;;;;;;;;;;16.28;48.20;100577.91;4950235;27;99803;-73
2024/04/06 03:57:49;;;;;;;;;;;;;;;16.27;48.22;100584.47;4941124;27;98962;-71
2024/04/06 04:00:16;;;;;;;;;;;;;;;16.25;48.21;100586.66;4952273;28;98222;-73
2024/04/06 04:02:44;;;;;;;;;;;;;;;16.26;48.22;100590.19;4940106;27;98266;-73
2024/04/06 04:05:12;;;;;;;;;;;;;;;16.24;48.15;100595.13;4920043;28;98492;-73
2024/04/06 04:07:38;;;;;;;;;;;;;;;16.24;48.26;100595.94;4936077;27;98954;-71
2024/04/06 04:10:05;;;;;;;;;;;;;;;16.23;48.10;100599.75;4939143;28;98113;-71
2024/04/06 04:12:35;;;;;;;;;;;;;;;16.23;48.22;100605.19;4940717;27;98013;-73
2024/04/06 04:15:02;;;;;;;;;;;;;;;16.22;48.08;100602.78;4971548;27;98587;-73
2024/04/06 04:17:30;;;;;;;;;;;;;;;16.20;48.10;100600.34;4937669;27;99431;-73
2024/04/06 04:19:56;;;;;;;;;;;;;;;16.22;48.21;100608.22;4939534;27;98284;-73
2024/04/06 04:22:22;;;;;;;;;;;;;;;16.21;48.03;100610.13;4937694;27;99826;-72
2024/04/06 04:24:49;;;;;;;;;;;;;;;16.20;48.26;100603.09;4937166;27;98454;-72
2024/04/06 04:27:15;;;;;;;;;;;;;;;16.20;48.31;100612.03;4937316;28;98438;-72
2024/04/06 04:29:41;;;;;;;;;;;;;;;16.19;48.13;100612.31;4941453;27;98091;-71
2024/04/06 04:32:16;;;;;;;;;;;;;;;16.19;48.02;100607.72;4935402;28;98442;-73
2024/04/06 04:34:43;;;;;;;;;;;;;;;16.20;48.07;100616.69;4937371;27;98467;-70
2024/04/06 04:37:12;;;;;;;;;;;;;;;16.20;48.05;100616.69;4941590;28;98136;-72
2024/04/06 04:39:39;;;;;;;;;;;;;;;16.20;47.97;100617.47;4924384;27;98140;-70
2024/04/06 04:42:06;;;;;;;;;;;;;;;16.21;48.08;100618.28;4926310;27;98103;-71
2024/04/06 04:44:33;;;;;;;;;;;;;;;16.23;48.13;100615.25;4957384;27;98468;-71
2024/04/06 04:47:00;;;;;;;;;;;;;;;16.23;48.22;100617.97;4953566;27;98227;-73
2024/04/06 04:49:27;;;;;;;;;;;;;;;16.24;48.16;100614.97;4936483;28;98459;-73
2024/04/06 04:51:53;;;;;;;;;;;;;;;16.25;48.22;100624.72;4935051;27;98259;-71
2024/04/06 04:54:20;;;;;;;;;;;;;;;16.26;48.15;100620.91;4940461;28;99799;-73
2024/04/06 04:56:48;;;;;;;;;;;;;;;16.29;48.13;100627.66;4919767;27;98213;-73
2024/04/06 04:59:15;;;;;;;;;;;;;;;16.30;48.17;100632.78;4955910;27;98038;-73
2024/04/06 05:01:42;;;;;;;;;;;;;;;16.32;48.00;100627.88;4941925;27;99613;-71
2024/04/06 05:04:08;;;;;;;;;;;;;;;16.34;47.97;100628.34;4951192;27;98727;-71
2024/04/06 05:06:35;;;;;;;;;;;;;;;16.34;48.07;100625.63;4932036;27;98181;-71
2024/04/06 05:09:02;;;;;;;;;;;;;;;16.39;47.80;100624.75;4939890;27;98480;-71
2024/04/06 05:11:28;;;;;;;;;;;;;;;16.41;47.87;100626.03;4937397;28;98557;-71
2024/04/06 05:13:54;;;;;;;;;;;;;;;16.44;48.02;100630.88;4935882;27;98527;-70
2024/04/06 05:16:21;;;;;;;;;;;;;;;16.48;47.98;100639.25;4934347;27;98145;-71
2024/04/06 05:18:48;;;;;;;;;;;;;;;16.50;47.89;100634.28;4940941;27;98496;-71
2024/04/06 05:21:14;;;;;;;;;;;;;;;16.54;47.89;100631.78;4935608;27;98603;-71
2024/04/06 05:23:41;;;;;;;;;;;;;;;16.59;47.87;100635.22;4932312;27;98207;-71
2024/04/06 05:26:07;;;;;;;;;;;;;;;16.68;47.70;100632.59;4933326;27;100243;-73
2024/04/06 05:28:35;;;;;;;;;;;;;;;16.81;47.78;100634.50;4937741;27;98278;-71
2024/04/06 05:31:02;;;;;;;;;;;;;;;16.89;47.78;100641.16;4936851;27;100584;-70
2024/04/06 05:33:28;;;;;;;;;;;;;;;16.96;47.66;100644.28;4949029;27;98221;-73
2024/04/06 05:35:55;;;;;;;;;;;;;;;17.00;47.61;100647.19;4933935;27;98253;-73
2024/04/06 05:38:24;;;;;;;;;;;;;;;17.03;47.70;100652.03;4962392;27;98166;-71
2024/04/06 05:40:52;;;;;;;;;;;;;;;17.04;47.59;100651.72;4950121;27;98483;-70
2024/04/06 05:43:20;;;;;;;;;;;;;;;17.03;47.72;100643.84;4918167;28;98852;-72
2024/04/06 05:45:49;;;;;;;;;;;;;;;17.06;47.88;100648.69;4951263;27;98589;-72
2024/04/06 05:48:16;;;;;;;;;;;;;;;17.11;47.82;100657.56;4935686;28;99434;-73
2024/04/06 05:50:44;;;;;;;;;;;;;;;17.17;47.62;100661.78;4935114;27;98479;-73
2024/04/06 05:53:11;;;;;;;;;;;;;;;17.28;47.64;100666.97;4939703;28;98039;-72
2024/04/06 05:55:38;;;;;;;;;;;;;;;17.37;47.58;100670.56;4920736;28;98040;-71
2024/04/06 05:58:05;;;;;;;;;;;;;;;17.45;47.53;100678.03;4917888;27;104732;-71
2024/04/06 06:00:32;;;;;;;;;;;;;;;17.52;47.65;100674.88;4937517;28;100424;-73
2024/04/06 06:02:58;;;;;;;;;;;;;;;17.61;47.24;100678.50;4933387;27;98527;-71
2024/04/06 06:05:25;;;;;;;;;;;;;;;17.70;47.33;100679.34;4939490;27;105818;-71
2024/04/06 06:07:52;;;;;;;;;;;;;;;17.79;47.40;100671.25;4927739;27;100381;-73
2024/04/06 06:10:19;;;;;;;;;;;;;;;17.86;47.49;100666.97;4915227;27;99341;-73
2024/04/06 06:12:45;;;;;;;;;;;;;;;17.95;47.52;100667.03;4933198;27;99284;-73
2024/04/06 06:15:12;;;;;;;;;;;;;;;18.02;47.24;100666.59;4948719;27;98320;-71
2024/04/06 06:17:40;;;;;;;;;;;;;;;18.10;47.18;100674.00;4935360;28;98432;-72
2024/04/06 06:20:07;;;;;;;;;;;;;;;18.27;47.20;100679.56;4924550;27;98180;-71
2024/04/06 06:22:34;;;;;;;;;;;;;;;18.50;46.80;100684.97;4938159;28;99002;-71
2024/04/06 06:25:02;;;;;;;;;;;;;;;18.67;46.86;100687.78;4949557;27;99082;-72
2024/04/06 06:27:30;;;;;;;;;;;;;;;18.70;46.92;100689.03;4938189;28;98217;-73
2024/04/06 06:29:56;;;;;;;;;;;;;;;18.75;47.03;100695.22;4935127;27;98435;-71
2024/04/06 06:32:23;;;;;;;;;;;;;;;18.82;47.04;100701.03;4940832;27;98644;-72
2024/04/06 06:34:49;;;;;;;;;;;;;;;18.93;46.92;100693.31;4942040;27;98744;-72
2024/04/06 06:37:16;;;;;;;;;;;;;;;19.07;46.87;100699.47;4934791;27;98358;-71
2024/04/06 06:39:45;;;;;;;;;;;;;;;19.21;46.92;100696.56;4967007;27;98417;-72
2024/04/06 06:42:12;;;;;;;;;;;;;;;19.35;46.68;100696.44;4953200;27;100326;-73
2024/04/06 06:44:39;;;;;;;;;;;;;;;19.46;46.86;100692.28;4922951;28;98412;-71
2024/04/06 06:47:05;;;;;;;;;;;;;;;19.55;46.76;100695.00;4936121;27;98534;-71
2024/04/06 06:49:33;;;;;;;;;;;;;;;19.59;46.91;100693.22;4935206;28;101625;-74
2024/04/06 06:51:59;;;;;;;;;;;;;;;19.65;46.90;100691.97;4935601;27;100524;-70
2024/04/06 06:54:27;;;;;;;;;;;;;;;19.80;46.80;100688.72;4921933;27;98243;-71
2024/04/06 06:56:54;;;;;;;;;;;;;;;19.86;46.68;100692.91;4938157;27;98252;-71
2024/04/06 06:59:21;;;;;;;;;;;;;;;20.04;46.68;100695.59;4916743;27;98234;-71
2024/04/06 07:01:48;;;;;;;;;;;;;;;20.26;46.54;100686.38;4935412;28;101021;-72
2024/04/06 07:04:15;;;;;;;;;;;;;;;20.47;46.46;100687.25;4939659;27;98376;-71
2024/04/06 07:06:42;;;;;;;;;;;;;;;20.66;46.28;100683.34;4930675;27;99467;-73
2024/04/06 07:09:09;;;;;;;;;;;;;;;20.81;46.32;100675.38;4937992;27;98081;-72
2024/04/06 07:11:36;;;;;;;;;;;;;;;20.96;46.21;100678.69;4919615;27;98699;-72
2024/04/06 07:14:02;;;;;;;;;;;;;;;21.13;46.27;100684.03;4953364;27;98834;-72
2024/04/06 07:16:28;;;;;;;;;;;;;;;21.34;46.04;100681.34;4955051;27;98853;-71
2024/04/06 07:18:55;;;;;;;;;;;;;;;21.51;45.97;100683.13;4949027;27;98033;-73
2024/04/06 07:21:22;;;;;;;;;;;;;;;21.68;45.92;100690.41;4934386;28;98228;-71
2024/04/06 07:23:49;;;;;;;;;;;;;;;21.74;46.10;100695.34;4920280;27;98093;-71
2024/04/06 07:26:15;;;;;;;;;;;;;;;22.00;45.90;100708.00;4934837;27;98440;-71
2024/04/06 07:28:44;;;;;;;;;;;;;;;22.28;45.96;100708.22;4934262;27;99740;-71
2024/04/06 07:31:11;;;;;;;;;;;;;;;22.41;45.54;100700.81;4921493;27;98455;-71
2024/04/06 07:33:38;;;;;;;;;;;;;;;22.71;45.50;100712.38;4940157;27;99699;-72
2024/04/06 07:36:06;;;;;;;;;;;;;;;22.85;45.65;100720.28;4939142;27;98226;-72
2024/04/06 07:38:34;;;;;;;;;;;;;;;22.96;45.68;100715.97;4936831;27;99413;-71
2024/04/06 07:41:00;;;;;;;;;;;;;;;23.42;45.12;100717.38;4924597;27;99329;-72
2024/04/06 07:43:27;;;;;;;;;;;;;;;23.72;45.18;100720.63;4936110;27;98178;-72
2024/04/06 07:45:54;;;;;;;;;;;;;;;23.81;45.26;100727.91;4950304;27;98366;-72
2024/04/06 07:48:22;;;;;;;;;;;;;;;24.32;44.71;100734.41;4919782;28;98868;-72
2024/04/06 07:50:49;;;;;;;;;;;;;;;24.84;44.29;100729.84;4934127;27;100878;-72
2024/04/06 07:53:15;;;;;;;;;;;;;;;25.14;44.54;100727.41;4951014;27;98488;-72
2024/04/06 07:55:41;;;;;;;;;;;;;;;25.49;44.26;100721.88;4942161;27;98488;-73
2024/04/06 07:58:08;;;;;;;;;;;;;;;25.87;44.01;100718.34;4933906;27;98241;-73
2024/04/06 08:00:34;;;;;;;;;;;;;;;26.24;44.02;100714.28;4940700;27;98130;-71
2024/04/06 08:03:01;;;;;;;;;;;;;;;26.68;43.72;100723.75;4932184;27;99191;-70
2024/04/06 08:05:27;;;;;;;;;;;;;;;27.13;43.76;100711.03;4932750;27;99598;-71
2024/04/06 08:07:54;;;;;;;;;;;;;;;27.57;43.43;100710.41;4937404;27;98531;-71
2024/04/06 08:10:21;;;;;;;;;;;;;;;28.04;43.22;100708.97;4936706;28;99731;-71
2024/04/06 08:12:47;;;;;;;;;;;;;;;28.53;42.94;100704.28;4938266;27;98623;-70
2024/04/06 08:15:13;;;;;;;;;;;;;;;29.00;42.80;100697.91;4953084;27;99141;-71
2024/04/06 08:17:41;;;;;;;;;;;;;;;29.49;42.50;100693.00;4932615;27;98371;-69
2024/04/06 08:20:08;;;;;;;;;;;;;;;29.94;42.39;100699.13;4932354;27;98582;-70
2024/04/06 08:22:40;;;;;;;;;;;;;;;30.44;42.30;100697.22;4914258;27;98200;-71
2024/04/06 08:25:07;;;;;;;;;;;;;;;30.98;42.06;100697.19;4933616;28;98705;-70
2024/04/06 08:27:34;;;;;;;;;;;;;;;31.09;42.36;100700.75;4928541;28;100185;-71
2024/04/06 08:30:06;;;;;;;;;;;;;;;30.73;43.00;100694.41;4933155;27;99833;-71
2024/04/06 08:32:32;;;;;;;;;;;;;;;29.75;44.09;100689.97;4919971;27;98290;-70
2024/04/06 08:34:58;;;;;;;;;;;;;;;29.20;44.68;100692.06;4933575;27;100107;-71
2024/04/06 08:37:25;;;;;;;;;;;;;;;29.10;44.60;100682.53;4921568;27;98750;-70
2024/04/06 08:39:51;;;;;;;;;;;;;;;28.53;45.01;100699.56;4906974;28;98155;-70
2024/04/06 08:42:19;;;;;;;;;;;;;;;27.95;45.34;100702.97;4968693;27;98525;-71
2024/04/06 08:44:45;;;;;;;;;;;;;;;29.71;43.19;100711.38;4932682;27;98412;-71
2024/04/06 08:47:16;;;;;;;;;;;;;;;28.82;44.30;100713.63;4934197;27;99615;-71
2024/04/06 08:49:43;;;;;;;;;;;;;;;28.38;44.90;100709.72;4938658;27;99760;-70
2024/04/06 08:52:10;;;;;;;;;;;;;;;28.77;44.50;100712.03;4948196;27;98219;-71
2024/04/06 08:54:36;;;;;;;;;;;;;;;29.26;43.94;100712.72;4950475;27;98531;-71
2024/04/06 08:57:04;;;;;;;;;;;;;;;29.63;43.78;100706.97;4917698;27;98493;-71
2024/04/06 08:59:33;;;;;;;;;;;;;;;31.12;42.20;100707.47;4935745;28;98024;-71
2024/04/06 09:02:00;;;;;;;;;;;;;;;31.19;42.58;100707.47;4933795;27;98228;-71
2024/04/06 09:04:26;;;;;;;;;;;;;;;32.79;41.34;100699.34;4931786;27;98438;-70
2024/04/06 09:06:52;;;;;;;;;;;;;;;31.85;42.54;100704.84;4949620;27;98235;-71
2024/04/06 09:09:19;;;;;;;;;;;;;;;31.57;42.82;100696.63;4932753;27;98979;-71
2024/04/06 09:11:45;;;;;;;;;;;;;;;33.10;41.25;100694.69;4934824;27;99742;-71
2024/04/06 09:14:12;;;;;;;;;;;;;;;34.02;40.98;100697.50;4934207;27;98650;-71
2024/04/06 09:16:39;;;;;;;;;;;;;;;33.34;41.69;100690.00;4933614;27;98185;-71
2024/04/06 09:19:08;;;;;;;;;;;;;;;32.25;43.07;100697.78;4915144;27;98425;-70
2024/04/06 09:21:34;;;;;;;;;;;;;;;33.91;41.42;100701.19;4937864;28;98252;-71
2024/04/06 09:24:01;;;;;;;;;;;;;;;33.39;42.09;100700.69;4933567;27;99037;-71
2024/04/06 09:26:31;;;;;;;;;;;;;;;34.12;41.71;100693.75;4938754;27;98819;-71
2024/04/06 09:28:59;;;;;;;;;;;;;;;35.45;40.62;100701.34;4920372;27;98627;-71
2024/04/06 09:31:26;;;;;;;;;;;;;;;36.51;40.13;100688.94;4920282;27;98461;-71
2024/04/06 09:33:56;;;;;;;;;;;;;;;37.14;39.82;100689.63;4937173;28;100208;-71
2024/04/06 09:36:23;;;;;;;;;;;;;;;38.18;38.84;100690.91;4920826;27;98823;-71
2024/04/06 09:38:51;;;;;;;;;;;;;;;38.92;38.79;100694.44;4940461;28;105884;-71
2024/04/06 09:41:18;;;;;;;;;;;;;;;39.48;38.71;100690.75;4950720;27;98858;-71
2024/04/06 09:43:45;;;;;;;;;;;;;;;39.95;38.61;100695.38;4932490;28;98124;-72
2024/04/06 09:46:12;;;;;;;;;;;;;;;40.43;38.55;100690.16;4937903;27;98234;-71
2024/04/06 09:48:39;;;;;;;;;;;;;;;40.43;38.91;100688.13;4934032;27;98410;-71
2024/04/06 09:51:05;;;;;;;;;;;;;;;40.48;39.02;100684.72;4934374;27;99434;-71
2024/04/06 09:53:36;;;;;;;;;;;;;;;40.50;39.02;100675.75;4912907;27;98248;-71
2024/04/06 09:56:04;;;;;;;;;;;;;;;40.76;38.86;100673.44;4939157;27;104563;-71
2024/04/06 09:58:30;;;;;;;;;;;;;;;40.94;39.18;100670.59;4933709;28;101848;-71
2024/04/06 10:01:17;;;;;;;;;;;;;;;41.44;38.77;100667.53;4934733;27;99635;-71
2024/04/06 10:03:46;;;;;;;;;;;;;;;41.38;38.95;100658.09;4949474;27;99036;-71
2024/04/06 10:06:19;;;;;;;;;;;;;;;41.25;39.33;100669.63;4939726;27;98330;-71
2024/04/06 10:08:52;;;;;;;;;;;;;;;41.50;38.92;100667.66;4934418;27;99418;-71
2024/04/06 10:11:19;;;;;;;;;;;;;;;42.12;38.70;100669.91;4952904;27;99967;-71
2024/04/06 10:14:21;;;;;;;;;;;;;;;42.60;38.45;100669.88;4915219;27;98230;-71
2024/04/06 10:16:47;;;;;;;;;;;;;;;42.69;38.18;100669.84;4939569;27;98319;-71
2024/04/06 10:19:14;;;;;;;;;;;;;;;42.98;38.38;100662.66;4938548;27;98780;-71
2024/04/06 10:21:45;;;;;;;;;;;;;;;43.12;38.37;100665.53;4931767;28;99085;-71
2024/04/06 10:24:12;;;;;;;;;;;;;;;43.44;38.16;100662.94;4935858;27;98059;-71
2024/04/06 10:26:53;;;;;;;;;;;;;;;43.76;37.78;100646.19;4932931;27;98255;-72
2024/04/06 10:29:20;;;;;;;;;;;;;;;43.60;38.36;100651.09;4948398;27;98528;-71
2024/04/06 10:31:46;;;;;;;;;;;;;;;43.83;38.08;100663.56;4936478;27;98076;-71
2024/04/06 10:34:14;;;;;;;;;;;;;;;44.04;37.88;100650.19;4935817;27;98415;-71
2024/04/06 10:36:41;;;;;;;;;;;;;;;44.00;37.94;100657.38;4915846;28;98287;-71
2024/04/06 10:39:10;;;;;;;;;;;;;;;43.90;38.18;100653.88;4928169;27;98958;-71
2024/04/06 10:41:42;;;;;;;;;;;;;;;44.08;37.90;100650.00;4936680;27;98619;-72
2024/04/06 10:44:09;;;;;;;;;;;;;;;43.69;38.40;100643.75;4931413;27;98227;-71
2024/04/06 10:46:36;;;;;;;;;;;;;;;43.67;38.42;100640.63;4915819;27;98600;-71
2024/04/06 10:49:11;;;;;;;;;;;;;;;43.98;37.99;100638.00;4938383;28;98689;-71
2024/04/06 10:51:38;;;;;;;;;;;;;;;43.86;38.38;100633.44;4953075;27;100684;-71
2024/04/06 10:54:05;;;;;;;;;;;;;;;43.84;38.35;100633.13;4937221;28;98645;-71
2024/04/06 10:56:34;;;;;;;;;;;;;;;43.83;38.36;100634.41;4919863;27;99827;-71
2024/04/06 10:59:01;;;;;;;;;;;;;;;43.87;38.27;100629.34;4930971;27;98272;-71
2024/04/06 11:01:34;;;;;;;;;;;;;;;43.94;38.27;100623.25;4944137;27;98845;-71
2024/04/06 11:04:03;;;;;;;;;;;;;;;43.74;38.53;100626.78;4939519;28;98209;-71
2024/04/06 11:06:29;;;;;;;;;;;;;;;43.60;38.42;100621.97;4952224;27;98286;-71
2024/04/06 11:08:56;;;;;;;;;;;;;;;43.45;38.61;100609.84;4923442;28;98186;-71
2024/04/06 11:11:23;;;;;;;;;;;;;;;43.31;38.92;100603.72;4917039;27;99225;-71
2024/04/06 11:13:57;;;;;;;;;;;;;;;43.17;38.74;100598.84;4921571;28;98683;-71
2024/04/06 11:16:25;;;;;;;;;;;;;;;43.08;38.98;100590.47;4936297;27;98166;-71
2024/04/06 11:18:51;;;;;;;;;;;;;;;43.03;38.92;100600.38;4923075;28;98640;-71
2024/04/06 11:21:19;;;;;;;;;;;;;;;43.07;38.67;100603.84;4923775;27;98938;-71
2024/04/06 11:23:47;;;;;;;;;;;;;;;42.96;38.94;100600.00;4953443;27;98936;-71
2024/04/06 11:26:19;;;;;;;;;;;;;;;42.81;38.75;100608.53;4939360;27;98057;-71
2024/04/06 11:28:46;;;;;;;;;;;;;;;42.61;39.10;100603.50;4954885;27;98014;-71
2024/04/06 11:31:16;;;;;;;;;;;;;;;42.43;39.07;100601.59;4940964;27;98002;-71
2024/04/06 11:33:42;;;;;;;;;;;;;;;42.27;38.86;100611.34;4941176;27;99175;-71
2024/04/06 11:36:09;;;;;;;;;;;;;;;42.02;39.53;100621.09;4934289;27;98343;-71
2024/04/06 11:38:35;;;;;;;;;;;;;;;41.83;39.70;100606.28;4919775;27;98526;-71
2024/04/06 11:41:02;;;;;;;;;;;;;;;41.63;39.80;100606.81;4971214;27;98373;-71
2024/04/06 11:43:29;;;;;;;;;;;;;;;41.48;39.77;100608.78;4953761;27;98055;-71
2024/04/06 11:45:56;;;;;;;;;;;;;;;41.30;39.46;100603.16;4940616;27;98324;-71
2024/04/06 11:48:22;;;;;;;;;;;;;;;41.09;39.60;100594.47;4919481;27;98207;-71
2024/04/06 11:50:49;;;;;;;;;;;;;;;40.97;40.07;100601.06;4918004;27;98536;-71
2024/04/06 11:53:15;;;;;;;;;;;;;;;40.85;40.04;100594.34;4935691;28;98573;-71
2024/04/06 11:55:41;;;;;;;;;;;;;;;40.74;39.77;100591.22;4936203;27;98396;-71
2024/04/06 11:58:08;;;;;;;;;;;;;;;40.65;40.10;100594.06;4916685;27;98240;-70
2024/04/06 12:00:35;;;;;;;;;;;;;;;40.58;39.92;100591.56;4932814;27;98333;-70
2024/04/06 12:03:02;;;;;;;;;;;;;;;40.40;40.09;100606.44;4933374;27;98185;-71
2024/04/06 12:05:28;;;;;;;;;;;;;;;40.28;40.04;100601.72;4938970;27;98090;-71
2024/04/06 12:07:55;;;;;;;;;;;;;;;40.19;39.77;100596.88;4942267;27;98081;-71
2024/04/06 12:10:22;;;;;;;;;;;;;;;40.12;40.23;100603.59;4920224;27;98258;-71
2024/04/06 12:12:48;;;;;;;;;;;;;;;40.06;39.71;100602.63;4939372;27;98313;-71
2024/04/06 12:15:15;;;;;;;;;;;;;;;39.87;40.30;100601.81;4919350;27;98291;-71
2024/04/06 12:17:42;;;;;;;;;;;;;;;39.84;39.95;100602.72;4938893;27;98419;-70
2024/04/06 12:20:08;;;;;;;;;;;;;;;39.78;40.04;100598.19;4940327;27;100992;-71
2024/04/06 12:22:35;;;;;;;;;;;;;;;39.68;40.12;100600.19;4923803;27;98100;-71
2024/04/06 12:25:03;;;;;;;;;;;;;;;39.51;40.22;100606.06;4925668;27;98322;-70
2024/04/06 12:27:30;;;;;;;;;;;;;;;39.33;40.49;100600.34;4930150;27;99821;-70
2024/04/06 12:29:57;;;;;;;;;;;;;;;39.22;40.38;100597.13;4961709;27;99190;-70
2024/04/06 12:32:25;;;;;;;;;;;;;;;39.11;40.60;100596.78;4922387;27;98392;-71
2024/04/06 12:34:51;;;;;;;;;;;;;;;38.97;40.42;100592.47;4943413;27;98708;-71
2024/04/06 12:37:19;;;;;;;;;;;;;;;38.86;40.24;100586.44;4932788;27;98412;-71